createdAt,value
2019-05-20T00:01:59.171Z,1.00
2019-05-20T00:04:29.247Z,1.00
2019-05-20T00:07:00.093Z,0.00
2019-05-20T00:09:30.304Z,1.00
2019-05-20T00:12:00.647Z,1.00
2019-05-20T00:14:30.772Z,1.00
2019-05-20T00:17:01.709Z,0.60
2019-05-20T00:19:32.430Z,0.00
2019-05-20T00:22:02.961Z,1.00
2019-05-20T00:24:33.213Z,1.00
2019-05-20T00:27:03.484Z,0.60
2019-05-20T00:29:33.708Z,0.20
2019-05-20T00:32:03.966Z,0.60
2019-05-20T00:34:35.766Z,0.00
2019-05-20T00:37:06.245Z,0.00
2019-05-20T00:39:36.760Z,1.00
2019-05-20T00:42:08.350Z,0.20
2019-05-20T00:44:38.453Z,0.00
2019-05-20T00:47:09.156Z,0.00
2019-05-20T00:49:39.401Z,0.00
2019-05-20T00:52:09.613Z,0.00
2019-05-20T00:54:39.990Z,0.00
2019-05-20T00:57:10.066Z,0.00
2019-05-20T00:59:40.277Z,0.00
2019-05-20T01:02:10.620Z,0.00
2019-05-20T01:04:41.194Z,0.00
2019-05-20T01:07:11.428Z,0.00
2019-05-20T01:09:41.620Z,0.00
2019-05-20T01:12:12.384Z,0.00
2019-05-20T01:14:42.517Z,0.00
2019-05-20T01:17:13.165Z,0.00
2019-05-20T01:19:43.976Z,0.00
2019-05-20T01:22:14.089Z,0.00
2019-05-20T01:24:44.438Z,0.00
2019-05-20T01:27:15.160Z,0.00
2019-05-20T01:29:45.401Z,0.00
2019-05-20T01:32:16.065Z,0.00
2019-05-20T01:34:46.532Z,0.00
2019-05-20T01:37:16.664Z,0.40
2019-05-20T01:39:47.582Z,0.00
2019-05-20T01:42:17.729Z,0.00
2019-05-20T01:44:48.340Z,0.00
2019-05-20T01:47:18.569Z,0.00
2019-05-20T01:49:48.783Z,0.00
2019-05-20T01:52:19.587Z,0.00
2019-05-20T01:54:49.755Z,0.00
2019-05-20T01:57:20.825Z,0.00
2019-05-20T01:59:51.237Z,0.60
2019-05-20T02:02:22.032Z,0.00
2019-05-20T02:04:52.600Z,0.00
2019-05-20T02:07:22.699Z,0.00
2019-05-20T02:09:53.528Z,0.00
2019-05-20T02:12:24.068Z,0.00
2019-05-20T02:14:59.210Z,0.00
2019-05-20T02:17:29.646Z,0.00
2019-05-20T02:19:59.948Z,0.00
2019-05-20T02:22:31.311Z,0.00
2019-05-20T02:25:01.738Z,0.00
2019-05-20T02:27:32.173Z,0.00
2019-05-20T02:30:03.090Z,0.00
2019-05-20T02:32:33.233Z,0.00
2019-05-20T02:35:03.825Z,0.00
2019-05-20T02:37:33.950Z,0.00
2019-05-20T02:40:05.207Z,0.00
2019-05-20T02:42:35.820Z,0.00
2019-05-20T02:45:08.824Z,0.00
2019-05-20T02:47:38.833Z,0.00
2019-05-20T02:50:09.053Z,0.00
2019-05-20T02:52:39.422Z,0.00
2019-05-20T02:55:09.793Z,0.00
2019-05-20T02:57:40.068Z,0.00
2019-05-20T03:00:10.492Z,0.00
2019-05-20T03:02:40.900Z,0.00
2019-05-20T03:05:11.093Z,0.00
2019-05-20T03:07:41.318Z,0.40
2019-05-20T03:10:11.845Z,0.00
2019-05-20T03:12:42.202Z,0.00
2019-05-20T03:15:12.915Z,0.00
2019-05-20T03:17:43.435Z,0.40
2019-05-20T03:20:13.682Z,2.00
2019-05-20T03:22:44.128Z,1.00
2019-05-20T03:25:15.614Z,1.00
2019-05-20T03:27:45.780Z,1.00
2019-05-20T03:30:17.333Z,1.20
2019-05-20T03:32:47.831Z,1.60
2019-05-20T03:35:17.990Z,3.40
2019-05-20T03:37:48.209Z,2.00
2019-05-20T03:40:18.507Z,3.00
2019-05-20T03:42:49.676Z,3.00
2019-05-20T03:45:19.990Z,2.00
2019-05-20T03:47:50.286Z,1.40
2019-05-20T03:50:20.877Z,2.00
2019-05-20T03:52:51.177Z,3.00
2019-05-20T03:55:21.747Z,2.20
2019-05-20T03:57:51.793Z,2.00
2019-05-20T04:00:25.269Z,2.80
2019-05-20T04:02:55.701Z,1.80
2019-05-20T04:05:26.250Z,1.60
2019-05-20T04:07:57.264Z,2.20
2019-05-20T04:10:27.916Z,1.60
2019-05-20T04:12:58.029Z,1.60
2019-05-20T04:15:28.369Z,1.00
2019-05-20T04:17:58.625Z,1.80
2019-05-20T04:20:28.697Z,1.60
2019-05-20T04:22:59.077Z,2.00
2019-05-20T04:25:29.467Z,1.00
2019-05-20T04:28:00.376Z,1.00
2019-05-20T04:30:30.634Z,1.00
2019-05-20T04:33:00.861Z,0.20
2019-05-20T04:35:30.973Z,2.00
2019-05-20T04:38:01.893Z,2.00
2019-05-20T04:40:32.029Z,1.00
2019-05-20T04:43:02.571Z,1.00
2019-05-20T04:45:32.905Z,1.60
2019-05-20T04:48:03.066Z,0.80
2019-05-20T04:50:33.630Z,2.00
2019-05-20T04:53:03.874Z,1.00
2019-05-20T04:55:33.945Z,0.80
2019-05-20T04:58:04.520Z,1.00
2019-05-20T05:00:50.139Z,1.00
2019-05-20T05:03:20.642Z,1.00
2019-05-20T05:05:52.140Z,1.00
2019-05-20T05:08:22.628Z,0.20
2019-05-20T05:10:53.199Z,1.80
2019-05-20T05:13:24.956Z,1.80
2019-05-20T05:15:55.180Z,1.00
2019-05-20T05:18:25.428Z,0.80
2019-05-20T05:20:55.752Z,1.00
2019-05-20T05:23:25.953Z,1.00
2019-05-20T05:25:56.381Z,0.00
2019-05-20T05:28:26.888Z,0.00
2019-05-20T05:30:57.860Z,0.60
2019-05-20T05:33:28.497Z,1.00
2019-05-20T05:35:59.308Z,0.00
2019-05-20T05:38:29.326Z,0.60
2019-05-20T05:40:59.554Z,1.00
2019-05-20T05:43:29.781Z,1.00
2019-05-20T05:45:59.909Z,1.00
2019-05-20T05:48:30.521Z,0.00
2019-05-20T05:51:01.065Z,1.40
2019-05-20T05:53:31.176Z,1.20
2019-05-20T05:56:01.392Z,0.00
2019-05-20T05:58:31.731Z,0.00
2019-05-20T06:01:02.131Z,0.25
2019-05-20T06:03:32.960Z,0.00
2019-05-20T06:06:12.349Z,0.00
2019-05-20T06:08:34.937Z,0.00
2019-05-20T06:11:05.290Z,0.00
2019-05-20T06:13:35.794Z,0.40
2019-05-20T06:16:06.620Z,1.00
2019-05-20T06:18:36.956Z,0.00
2019-05-20T06:21:07.291Z,0.00
2019-05-20T06:23:37.912Z,0.40
2019-05-20T06:26:08.041Z,0.00
2019-05-20T06:28:38.880Z,0.40
2019-05-20T06:31:09.492Z,0.00
2019-05-20T06:33:41.067Z,0.00
2019-05-20T06:36:24.585Z,0.00
2019-05-20T06:38:44.425Z,0.00
2019-05-20T06:41:14.611Z,0.00
2019-05-20T06:43:44.914Z,0.00
2019-05-20T06:46:15.233Z,0.40
2019-05-20T06:48:45.587Z,0.00
2019-05-20T06:51:16.097Z,0.00
2019-05-20T06:53:46.925Z,0.00
2019-05-20T06:56:17.539Z,0.00
2019-05-20T06:58:48.468Z,0.00
2019-05-20T07:01:18.545Z,0.00
2019-05-20T07:03:48.832Z,0.00
2019-05-20T07:06:19.644Z,0.60
2019-05-20T07:08:50.409Z,0.00
2019-05-20T07:11:21.224Z,0.00
2019-05-20T07:13:51.477Z,0.00
2019-05-20T07:16:22.394Z,0.00
2019-05-20T07:18:52.552Z,0.00
2019-05-20T07:21:23.352Z,1.40
2019-05-20T07:23:53.768Z,0.00
2019-05-20T07:26:24.515Z,0.00
2019-05-20T07:28:54.724Z,0.00
2019-05-20T07:31:25.261Z,0.00
2019-05-20T07:33:55.616Z,0.00
2019-05-20T07:36:26.308Z,0.00
2019-05-20T07:38:56.523Z,0.00
2019-05-20T07:41:26.678Z,0.00
2019-05-20T07:43:57.503Z,0.00
2019-05-20T07:46:27.849Z,0.60
2019-05-20T07:48:58.686Z,0.20
2019-05-20T07:51:29.378Z,0.00
2019-05-20T07:54:00.365Z,0.80
2019-05-20T07:56:33.069Z,0.00
2019-05-20T07:59:05.876Z,0.00
2019-05-20T08:01:36.145Z,0.00
2019-05-20T08:04:06.528Z,0.00
2019-05-20T08:06:37.017Z,0.00
2019-05-20T08:09:08.945Z,0.00
2019-05-20T08:11:39.178Z,0.00
2019-05-20T08:14:09.481Z,0.00
2019-05-20T08:16:40.084Z,0.00
2019-05-20T08:19:10.320Z,0.60
2019-05-20T08:21:41.076Z,0.00
2019-05-20T08:24:11.805Z,0.00
2019-05-20T08:26:42.767Z,0.00
2019-05-20T08:29:13.187Z,0.00
2019-05-20T08:31:43.506Z,1.00
2019-05-20T08:34:13.646Z,0.00
2019-05-20T08:36:43.959Z,1.00
2019-05-20T08:39:14.801Z,1.00
2019-05-20T08:41:45.285Z,0.00
2019-05-20T08:44:15.425Z,0.40
2019-05-20T08:46:45.757Z,0.00
2019-05-20T08:49:15.897Z,0.00
2019-05-20T08:51:46.480Z,0.00
2019-05-20T08:54:16.809Z,0.00
2019-05-20T08:56:49.407Z,0.00
2019-05-20T08:59:20.003Z,0.00
2019-05-20T09:01:50.671Z,0.00
2019-05-20T09:04:21.475Z,1.20
2019-05-20T09:06:52.105Z,0.00
2019-05-20T09:09:22.818Z,0.00
2019-05-20T09:11:53.480Z,0.00
2019-05-20T09:14:24.217Z,0.40
2019-05-20T09:16:54.441Z,0.00
2019-05-20T09:19:24.670Z,0.60
2019-05-20T09:21:54.930Z,0.00
2019-05-20T09:24:25.217Z,0.00
2019-05-20T09:26:55.749Z,0.00
2019-05-20T09:29:26.254Z,1.00
2019-05-20T09:31:56.411Z,0.00
2019-05-20T09:34:28.145Z,0.00
2019-05-20T09:36:58.771Z,0.00
2019-05-20T09:39:28.893Z,0.00
2019-05-20T09:41:59.737Z,0.60
2019-05-20T09:44:29.945Z,0.00
2019-05-20T09:47:00.192Z,0.00
2019-05-20T09:49:31.033Z,0.00
2019-05-20T09:52:01.538Z,0.00
2019-05-20T09:54:32.182Z,0.20
2019-05-20T09:57:02.888Z,0.00
2019-05-20T09:59:42.815Z,0.00
2019-05-20T10:02:04.921Z,0.00
2019-05-20T10:04:35.144Z,0.00
2019-05-20T10:07:05.948Z,1.00
2019-05-20T10:09:36.270Z,0.40
2019-05-20T10:12:06.693Z,0.00
2019-05-20T10:14:36.903Z,0.00
2019-05-20T10:17:07.465Z,0.20
2019-05-20T10:19:37.354Z,0.00
2019-05-20T10:22:08.281Z,0.00
2019-05-20T10:24:38.440Z,0.00
2019-05-20T10:27:08.651Z,0.00
2019-05-20T10:29:39.023Z,0.00
2019-05-20T10:32:09.077Z,0.00
2019-05-20T10:34:39.524Z,0.00
2019-05-20T10:37:10.438Z,0.00
2019-05-20T10:39:40.687Z,0.00
2019-05-20T10:42:11.007Z,0.00
2019-05-20T10:44:42.083Z,0.00
2019-05-20T10:47:12.268Z,0.00
2019-05-20T10:49:42.561Z,0.00
2019-05-20T10:52:12.680Z,0.00
2019-05-20T10:54:43.328Z,0.00
2019-05-20T10:57:13.532Z,0.00
2019-05-20T10:59:44.065Z,0.00
2019-05-20T11:02:14.621Z,0.00
2019-05-20T11:04:44.705Z,0.00
2019-05-20T11:07:14.958Z,0.00
2019-05-20T11:09:45.617Z,0.00
2019-05-20T11:12:16.390Z,0.00
2019-05-20T11:14:46.660Z,0.00
2019-05-20T11:17:17.093Z,0.00
2019-05-20T11:19:47.941Z,0.00
2019-05-20T11:22:18.509Z,0.00
2019-05-20T11:24:48.664Z,0.00
2019-05-20T11:27:19.605Z,0.00
2019-05-20T11:29:49.771Z,0.00
2019-05-20T11:32:20.389Z,0.00
2019-05-20T11:34:51.062Z,0.00
2019-05-20T11:37:21.560Z,0.00
2019-05-20T11:39:52.224Z,0.00
2019-05-20T11:42:23.058Z,0.00
2019-05-20T11:44:56.767Z,0.00
2019-05-20T11:47:27.534Z,0.00
2019-05-20T11:49:57.636Z,0.00
2019-05-20T11:52:28.074Z,0.00
2019-05-20T11:54:58.555Z,0.00
2019-05-20T11:57:28.932Z,0.00
2019-05-20T11:59:59.522Z,0.00
2019-05-20T12:02:29.766Z,0.00
2019-05-20T12:04:59.869Z,0.00
2019-05-20T12:07:30.186Z,0.00
2019-05-20T12:10:00.397Z,0.00
2019-05-20T12:12:30.898Z,0.00
2019-05-20T12:15:01.793Z,0.00
2019-05-20T12:17:32.280Z,0.00
2019-05-20T12:20:03.937Z,0.00
2019-05-20T12:22:34.198Z,0.00
2019-05-20T12:25:05.409Z,0.00
2019-05-20T12:27:35.950Z,0.00
2019-05-20T12:30:08.523Z,0.00
2019-05-20T12:32:38.823Z,0.00
2019-05-20T12:35:09.191Z,0.00
2019-05-20T12:37:39.567Z,0.00
2019-05-20T12:40:10.750Z,0.60
2019-05-20T12:42:41.212Z,0.00
2019-05-20T12:45:11.479Z,0.00
2019-05-20T12:47:42.094Z,1.00
2019-05-20T12:50:12.474Z,0.00
2019-05-20T12:52:42.993Z,0.00
2019-05-20T12:55:13.396Z,0.00
2019-05-20T12:57:43.882Z,0.00
2019-05-20T13:00:15.659Z,0.00
2019-05-20T13:02:46.115Z,0.00
2019-05-20T13:05:16.668Z,0.00
2019-05-20T13:07:46.788Z,0.00
2019-05-20T13:10:28.936Z,0.00
2019-05-20T13:12:49.525Z,0.00
2019-05-20T13:15:20.054Z,0.00
2019-05-20T13:17:50.510Z,0.00
2019-05-20T13:20:21.116Z,0.00
2019-05-20T13:22:51.605Z,0.00
2019-05-20T13:25:21.811Z,0.00
2019-05-20T13:27:51.951Z,0.00
2019-05-20T13:30:23.162Z,0.00
2019-05-20T13:32:53.277Z,0.00
2019-05-20T13:35:24.080Z,0.00
2019-05-20T13:37:54.352Z,0.00
2019-05-20T13:40:24.954Z,0.00
2019-05-20T13:42:55.203Z,0.00
2019-05-20T13:45:25.338Z,0.00
2019-05-20T13:47:55.932Z,0.00
2019-05-20T13:50:26.777Z,0.20
2019-05-20T13:52:56.913Z,0.00
2019-05-20T13:55:27.237Z,0.00
2019-05-20T13:57:58.050Z,0.00
2019-05-20T14:00:28.173Z,0.40
2019-05-20T14:02:58.650Z,0.00
2019-05-20T14:05:29.354Z,0.20
2019-05-20T14:07:59.471Z,0.00
2019-05-20T14:10:29.719Z,0.00
2019-05-20T14:13:00.227Z,0.00
2019-05-20T14:15:30.837Z,0.00
2019-05-20T14:18:00.988Z,0.00
2019-05-20T14:20:31.177Z,0.00
2019-05-20T14:23:01.805Z,0.00
2019-05-20T14:25:31.937Z,0.00
2019-05-20T14:28:02.949Z,0.00
2019-05-20T14:30:33.009Z,0.00
2019-05-20T14:33:03.483Z,0.00
2019-05-20T14:35:33.833Z,0.00
2019-05-20T14:38:04.115Z,0.00
2019-05-20T14:40:34.605Z,0.00
2019-05-20T14:43:04.705Z,0.00
2019-05-20T14:45:35.333Z,0.00
2019-05-20T14:48:05.614Z,0.00
2019-05-20T14:50:36.696Z,0.00
2019-05-20T14:53:06.869Z,0.20
2019-05-20T14:55:42.068Z,0.00
2019-05-20T14:58:09.111Z,0.00
2019-05-20T15:00:39.498Z,0.00
2019-05-20T15:03:09.724Z,0.80
2019-05-20T15:05:40.170Z,0.60
2019-05-20T15:08:10.901Z,0.00
2019-05-20T15:10:40.948Z,0.00
2019-05-20T15:13:11.684Z,0.80
2019-05-20T15:15:42.299Z,0.00
2019-05-20T15:18:12.533Z,0.00
2019-05-20T15:20:42.664Z,1.00
2019-05-20T15:23:12.857Z,0.00
2019-05-20T15:25:43.500Z,0.00
2019-05-20T15:28:13.610Z,0.00
2019-05-20T15:30:44.239Z,0.40
2019-05-20T15:33:14.428Z,0.00
2019-05-20T15:35:44.989Z,0.20
2019-05-20T15:38:15.726Z,1.00
2019-05-20T15:40:46.362Z,1.00
2019-05-20T15:43:16.505Z,1.80
2019-05-20T15:45:46.717Z,1.00
2019-05-20T15:48:16.957Z,1.00
2019-05-20T15:50:47.857Z,1.40
2019-05-20T15:53:18.094Z,0.00
2019-05-20T15:55:48.244Z,1.00
2019-05-20T15:58:18.874Z,3.00
2019-05-20T16:00:49.956Z,2.60
2019-05-20T16:03:20.286Z,1.00
2019-05-20T16:05:51.028Z,0.20
2019-05-20T16:08:21.278Z,0.00
2019-05-20T16:10:52.173Z,0.00
2019-05-20T16:13:23.163Z,0.60
2019-05-20T16:15:53.980Z,0.80
2019-05-20T16:18:24.614Z,1.00
2019-05-20T16:20:55.122Z,0.00
2019-05-20T16:23:25.342Z,0.40
2019-05-20T16:25:55.481Z,0.80
2019-05-20T16:28:26.305Z,2.40
2019-05-20T16:30:56.614Z,2.20
2019-05-20T16:33:27.160Z,0.80
2019-05-20T16:35:57.361Z,1.00
2019-05-20T16:38:27.562Z,0.00
2019-05-20T16:40:57.836Z,0.40
2019-05-20T16:43:28.551Z,0.80
2019-05-20T16:45:58.861Z,0.00
2019-05-20T16:48:29.033Z,0.40
2019-05-20T16:50:59.232Z,0.40
2019-05-20T16:53:30.369Z,0.00
2019-05-20T16:56:00.759Z,0.00
2019-05-20T16:58:31.241Z,0.00
2019-05-20T17:01:01.440Z,0.00
2019-05-20T17:03:31.576Z,0.00
2019-05-20T17:06:01.768Z,0.00
2019-05-20T17:08:32.120Z,0.80
2019-05-20T17:11:02.407Z,0.00
2019-05-20T17:13:32.773Z,0.00
2019-05-20T17:16:02.984Z,0.00
2019-05-20T17:18:33.808Z,0.00
2019-05-20T17:21:04.728Z,0.00
2019-05-20T17:23:34.896Z,0.00
2019-05-20T17:26:05.794Z,0.00
2019-05-20T17:28:36.242Z,0.00
2019-05-20T17:31:06.872Z,0.00
2019-05-20T17:33:37.309Z,0.00
2019-05-20T17:36:07.507Z,0.00
2019-05-20T17:38:37.937Z,0.00
2019-05-20T17:41:08.880Z,0.00
2019-05-20T17:43:39.276Z,0.00
2019-05-20T17:46:09.745Z,0.20
2019-05-20T17:48:39.846Z,0.00
2019-05-20T17:51:10.165Z,0.00
2019-05-20T17:53:40.499Z,0.00
2019-05-20T17:56:11.990Z,1.00
2019-05-20T17:58:42.396Z,0.00
2019-05-20T18:01:15.886Z,0.00
2019-05-20T18:03:44.036Z,0.40
2019-05-20T18:06:14.568Z,0.40
2019-05-20T18:08:46.569Z,0.00
2019-05-20T18:11:19.253Z,0.00
2019-05-20T18:13:48.926Z,0.40
2019-05-20T18:16:19.030Z,0.00
2019-05-20T18:18:49.288Z,0.00
2019-05-20T18:21:19.554Z,1.00
2019-05-20T18:23:49.705Z,1.00
2019-05-20T18:26:20.356Z,0.40
2019-05-20T18:28:50.664Z,1.00
2019-05-20T18:31:31.846Z,0.00
2019-05-20T18:33:53.073Z,0.00
2019-05-20T18:36:23.916Z,0.00
2019-05-20T18:38:54.210Z,0.40
2019-05-20T18:41:24.341Z,0.40
2019-05-20T18:43:54.870Z,1.00
2019-05-20T18:46:25.721Z,0.80
2019-05-20T18:48:56.334Z,1.00
2019-05-20T18:51:26.457Z,1.00
2019-05-20T18:53:57.368Z,0.00
2019-05-20T18:56:28.122Z,1.60
2019-05-20T18:58:58.324Z,0.00
2019-05-20T19:01:29.167Z,0.40
2019-05-20T19:03:59.810Z,0.00
2019-05-20T19:06:30.320Z,0.80
2019-05-20T19:09:00.460Z,0.00
2019-05-20T19:11:30.790Z,0.00
2019-05-20T19:14:01.329Z,0.00
2019-05-20T19:16:32.041Z,0.20
2019-05-20T19:19:02.349Z,0.60
2019-05-20T19:21:33.102Z,0.00
2019-05-20T19:24:03.453Z,0.00
2019-05-20T19:26:33.634Z,0.00
2019-05-20T19:29:04.786Z,0.00
2019-05-20T19:31:35.126Z,0.00
2019-05-20T19:34:05.828Z,0.00
2019-05-20T19:36:36.107Z,0.00
2019-05-20T19:39:08.421Z,0.00
2019-05-20T19:41:38.771Z,0.00
2019-05-20T19:44:09.087Z,0.00
2019-05-20T19:46:40.109Z,0.00
2019-05-20T19:49:10.332Z,0.00
2019-05-20T19:51:40.848Z,0.00
2019-05-20T19:54:10.994Z,0.00
2019-05-20T19:56:41.823Z,0.00
2019-05-20T19:59:12.380Z,0.00
2019-05-20T20:01:42.494Z,0.00
2019-05-20T20:04:13.313Z,0.00
2019-05-20T20:06:43.969Z,0.00
2019-05-20T20:09:14.094Z,0.00
2019-05-20T20:11:44.277Z,0.00
2019-05-20T20:14:14.925Z,0.40
2019-05-20T20:16:45.744Z,0.00
2019-05-20T20:19:15.896Z,0.00
2019-05-20T20:21:46.718Z,0.00
2019-05-20T20:24:16.953Z,0.00
2019-05-20T20:26:47.850Z,0.00
2019-05-20T20:29:18.173Z,0.00
2019-05-20T20:31:48.392Z,0.00
2019-05-20T20:34:18.797Z,0.00
2019-05-20T20:36:49.353Z,0.00
2019-05-20T20:39:20.128Z,0.00
2019-05-20T20:41:50.304Z,0.00
2019-05-20T20:44:20.877Z,0.00
2019-05-20T20:46:51.028Z,0.00
2019-05-20T20:49:21.932Z,0.00
2019-05-20T20:51:52.015Z,0.00
2019-05-20T20:54:22.319Z,0.00
2019-05-20T20:56:52.474Z,0.00
2019-05-20T20:59:23.985Z,0.00
2019-05-20T21:01:58.788Z,0.80
2019-05-20T21:04:26.280Z,0.00
2019-05-20T21:06:57.095Z,0.80
2019-05-20T21:09:27.913Z,0.20
2019-05-20T21:11:58.488Z,0.00
2019-05-20T21:14:28.723Z,0.00
2019-05-20T21:16:59.236Z,0.00
2019-05-20T21:19:29.373Z,0.00
2019-05-20T21:21:59.977Z,0.00
2019-05-20T21:24:30.096Z,0.00
2019-05-20T21:27:00.933Z,0.00
2019-05-20T21:29:32.688Z,0.00
2019-05-20T21:32:03.256Z,0.80
2019-05-20T21:34:33.567Z,0.00
2019-05-20T21:37:04.064Z,0.00
2019-05-20T21:39:34.611Z,1.00
2019-05-20T21:42:05.056Z,0.60
2019-05-20T21:44:35.339Z,0.00
2019-05-20T21:47:05.566Z,0.60
2019-05-20T21:49:36.113Z,0.00
2019-05-20T21:52:06.239Z,0.60
2019-05-20T21:54:36.894Z,0.00
2019-05-20T21:57:07.599Z,0.00
2019-05-20T21:59:38.334Z,1.20
2019-05-20T22:02:09.062Z,0.00
2019-05-20T22:04:39.369Z,0.00
2019-05-20T22:07:09.816Z,0.00
2019-05-20T22:09:40.367Z,0.00
2019-05-20T22:12:10.568Z,0.00
2019-05-20T22:14:41.012Z,0.00
2019-05-20T22:17:11.821Z,0.00
2019-05-20T22:19:42.182Z,0.00
2019-05-20T22:22:22.908Z,0.00
2019-05-20T22:24:53.949Z,1.00
2019-05-20T22:27:24.055Z,0.20
2019-05-20T22:29:54.325Z,0.00
2019-05-20T22:32:24.634Z,0.00
2019-05-20T22:34:54.751Z,1.00
2019-05-20T22:37:25.102Z,1.00
2019-05-20T22:39:55.589Z,0.00
2019-05-20T22:42:26.521Z,0.60
2019-05-20T22:44:57.263Z,2.00
2019-05-20T22:47:27.992Z,0.00
2019-05-20T22:49:58.214Z,1.00
2019-05-20T22:52:28.540Z,0.20
2019-05-20T22:54:58.704Z,0.80
2019-05-20T22:57:28.908Z,0.00
2019-05-20T22:59:59.087Z,0.00
2019-05-20T23:02:29.340Z,1.00
2019-05-20T23:04:59.673Z,0.00
2019-05-20T23:07:29.765Z,0.00
2019-05-20T23:10:00.183Z,0.00
2019-05-20T23:12:30.948Z,1.00
2019-05-20T23:15:01.045Z,1.00
2019-05-20T23:17:31.293Z,0.80
2019-05-20T23:20:02.074Z,1.20
2019-05-20T23:22:32.446Z,0.20
2019-05-20T23:25:02.597Z,0.20
2019-05-20T23:27:33.386Z,1.40
2019-05-20T23:30:03.697Z,2.00
2019-05-20T23:32:33.860Z,1.00
2019-05-20T23:35:04.445Z,2.80
2019-05-20T23:37:34.800Z,0.60
2019-05-20T23:40:09.188Z,0.80
2019-05-20T23:42:39.356Z,1.00
2019-05-20T23:45:09.867Z,0.40
2019-05-20T23:47:40.689Z,0.00
2019-05-20T23:50:11.324Z,0.60
2019-05-20T23:52:41.564Z,0.40
2019-05-20T23:55:11.754Z,0.00
2019-05-20T23:57:42.803Z,0.00
